Terminal Aerodrome Forecast
Issued by NWS Springfield, MO

Home | Current Version | Previous Version | Text Only | Print | Product List | Glossary On
Versions: 1 2 3 4 5 6 7 8 9 10 11 12 13 14 15 16 17 18 19 20 21 22 23 24 25 26 27 28 29 30 31 32
000
FTUS43 KSGF 282300
TAFSGF
TAF
KSGF 282339Z 0100/0124 15007KT 1SM -SN BR OVC020
     FM010800 VRB05KT 1SM -DZ BR OVC003
     FM011600 VRB05KT P6SM OVC007=

USA.gov is the U.S. government's official web portal to all federal, state and local government web resources and services.